KMRF/MRF METAR and TAF weather

Enter ICAO airport designator
Station Type Date Time Source
KMRF METAR 2021/04/12 03:56 UTC NOAA

KMRF 120356Z AUTO 02007KT 10SM CLR 15/M12 A2989 RMK AO2 SLP068 T01501117


Station Type Date Time Source
KMRF Decoded METAR 2021/04/12 03:56 UTC NOAA

Marfa, TX, United States (KMRF) 30-22N 104-01W 1481M
Apr 11, 2021 - 11:56 PM EDT / 2021.04.12 0356 UTC
Wind: from the NNE (020 degrees) at 8 MPH (7 KT):0
Visibility: 10 mile(s):0
Sky conditions: clear
Temperature: 59.0 F (15.0 C)
Dew Point: 10.9 F (-11.7 C)
Relative Humidity: 14%
Pressure (altimeter): 29.89 in. Hg (1012 hPa)
ob: KMRF 120356Z AUTO 02007KT 10SM CLR 15/M12 A2989 RMK AO2 SLP068 T01501117
cycle: 4

Station Type Date Time Source
KMRF TAF UTC NOAA

Error!

Example: see airport list